Time;durP1;ratioP1;P1;durP2;ratioP2;P2;SDS_P1;SDS_P2;PMS_P1;PMS_P2;Temp;Humidity;BMP_temperature;BMP_pressure;BME280_temperature;BME280_humidity;BME280_pressure;Samples;Min_cycle;Max_cycle;Signal;HPM_P1;HPM_P2
2022/04/22 00:00:11;;;;;;;19.70;7.20;;;;;;;;;;4998329;28;20041;-77
2022/04/22 00:02:39;;;;;;;11.40;7.70;;;;;;;;;;4983833;28;20049;-77
2022/04/22 00:05:05;;;;;;;13.05;7.25;;;;;;;;;;4980671;28;20129;-76
2022/04/22 00:07:31;;;;;;;13.20;7.63;;;;;;;;;;4996657;28;20049;-76
2022/04/22 00:09:57;;;;;;;12.77;7.80;;;;;;;;;;4986087;28;20068;-76
2022/04/22 00:12:23;;;;;;;10.63;7.55;;;;;;;;;;4997080;28;20045;-76
2022/04/22 00:14:49;;;;;;;10.90;7.40;;;;;;;;;;4981072;28;20177;-76
2022/04/22 00:17:15;;;;;;;14.80;6.88;;;;;;;;;;4998191;28;20054;-77
2022/04/22 00:19:41;;;;;;;15.02;7.88;;;;;;;;;;4997531;28;20054;-76
2022/04/22 00:22:08;;;;;;;12.02;7.10;;;;;;;;;;4997788;28;20481;-76
2022/04/22 00:24:34;;;;;;;17.30;7.40;;;;;;;;;;5014101;28;20042;-76
2022/04/22 00:27:00;;;;;;;13.93;7.70;;;;;;;;;;4990865;28;20057;-76
2022/04/22 00:29:26;;;;;;;15.85;8.35;;;;;;;;;;4994321;28;20049;-76
2022/04/22 00:31:52;;;;;;;11.02;7.50;;;;;;;;;;4996445;28;20049;-76
2022/04/22 00:34:18;;;;;;;11.60;7.95;;;;;;;;;;4997615;28;20042;-76
2022/04/22 00:36:44;;;;;;;17.17;8.35;;;;;;;;;;4997216;28;20050;-76
2022/04/22 00:39:10;;;;;;;17.45;8.07;;;;;;;;;;4997780;28;20050;-76
2022/04/22 00:41:36;;;;;;;14.25;7.47;;;;;;;;;;4961953;28;20490;-76
2022/04/22 00:44:02;;;;;;;16.60;8.90;;;;;;;;;;4985709;28;20058;-75
2022/04/22 00:46:29;;;;;;;14.57;8.00;;;;;;;;;;4989614;28;20050;-76
2022/04/22 00:48:55;;;;;;;14.85;7.47;;;;;;;;;;4964918;28;20050;-76
2022/04/22 00:51:22;;;;;;;13.35;7.93;;;;;;;;;;4995676;28;20120;-76
2022/04/22 00:53:52;;;;;;;13.57;8.25;;;;;;;;;;4983202;28;20422;-76
2022/04/22 00:56:18;;;;;;;14.95;7.20;;;;;;;;;;4997384;28;20092;-76
2022/04/22 00:58:45;;;;;;;17.98;8.13;;;;;;;;;;4996253;28;20088;-78
2022/04/22 01:01:11;;;;;;;18.02;8.55;;;;;;;;;;4996985;28;20046;-77
2022/04/22 01:03:38;;;;;;;15.50;8.43;;;;;;;;;;4996816;28;20078;-76
2022/04/22 01:11:39;;;;;;;15.75;8.40;;;;;;;;;;4977572;28;20096;-76
2022/04/22 01:14:06;;;;;;;20.00;8.85;;;;;;;;;;5003967;28;20038;-75
2022/04/22 01:16:33;;;;;;;16.65;7.88;;;;;;;;;;5012961;28;20053;-74
2022/04/22 01:18:59;;;;;;;19.73;9.18;;;;;;;;;;4996923;28;20400;-74
2022/04/22 01:21:25;;;;;;;13.88;8.23;;;;;;;;;;5012748;28;20563;-79
2022/04/22 01:23:51;;;;;;;15.98;8.02;;;;;;;;;;4992056;28;20042;-74
2022/04/22 01:26:17;;;;;;;12.98;8.32;;;;;;;;;;5013052;28;20056;-74
2022/04/22 01:28:43;;;;;;;13.63;8.52;;;;;;;;;;4969092;28;20046;-74
2022/04/22 01:31:09;;;;;;;17.73;8.27;;;;;;;;;;5002309;28;20483;-75
2022/04/22 01:33:36;;;;;;;13.02;8.63;;;;;;;;;;4995804;28;20092;-75
2022/04/22 01:36:02;;;;;;;13.43;8.63;;;;;;;;;;4996146;28;20092;-75
2022/04/22 01:38:30;;;;;;;18.65;8.68;;;;;;;;;;4991960;28;20470;-75
2022/04/22 01:40:56;;;;;;;15.45;8.98;;;;;;;;;;4970937;28;20144;-75
2022/04/22 01:43:22;;;;;;;13.30;7.93;;;;;;;;;;5013034;28;20061;-75
2022/04/22 01:45:48;;;;;;;15.07;8.43;;;;;;;;;;4989054;28;20061;-75
2022/04/22 01:48:14;;;;;;;13.43;7.70;;;;;;;;;;4984060;28;20371;-78
2022/04/22 01:50:40;;;;;;;14.13;8.18;;;;;;;;;;4995852;28;20045;-75
2022/04/22 01:53:07;;;;;;;13.38;8.25;;;;;;;;;;4996010;28;20487;-76
2022/04/22 01:55:36;;;;;;;20.05;9.05;;;;;;;;;;4995919;28;20046;-75
2022/04/22 01:58:02;;;;;;;11.70;8.20;;;;;;;;;;4995798;28;20057;-75
2022/04/22 02:00:28;;;;;;;13.73;7.55;;;;;;;;;;5008031;28;20100;-82
2022/04/22 02:02:54;;;;;;;18.33;8.68;;;;;;;;;;4996211;28;20045;-75
2022/04/22 02:05:20;;;;;;;14.35;8.43;;;;;;;;;;4991568;28;20053;-77
2022/04/22 02:07:46;;;;;;;14.85;7.57;;;;;;;;;;5011697;28;20049;-75
2022/04/22 02:10:13;;;;;;;10.60;7.72;;;;;;;;;;5008469;28;20383;-75
2022/04/22 02:12:39;;;;;;;10.65;7.47;;;;;;;;;;4961497;28;20367;-74
2022/04/22 02:15:05;;;;;;;12.95;7.78;;;;;;;;;;4978334;28;20136;-75
2022/04/22 02:17:32;;;;;;;13.70;8.13;;;;;;;;;;4995152;28;20050;-75
2022/04/22 02:19:58;;;;;;;15.80;7.88;;;;;;;;;;5011862;28;20076;-74
2022/04/22 02:22:24;;;;;;;12.68;8.15;;;;;;;;;;4995164;28;20046;-75
2022/04/22 02:24:50;;;;;;;12.80;8.35;;;;;;;;;;4994935;28;20253;-75
2022/04/22 02:30:01;;;;;;;12.18;7.45;;;;;;;;;;4991584;28;20452;-75
2022/04/22 02:32:27;;;;;;;20.95;7.95;;;;;;;;;;5012180;28;20053;-75
2022/04/22 02:34:53;;;;;;;11.65;7.53;;;;;;;;;;4981965;28;20077;-74
2022/04/22 02:37:19;;;;;;;14.05;8.05;;;;;;;;;;5002462;28;20408;-76
2022/04/22 02:39:45;;;;;;;14.73;8.10;;;;;;;;;;4986194;28;20060;-76
2022/04/22 02:47:41;;;;;;;10.52;7.15;;;;;;;;;;4981987;28;20061;-76
2022/04/22 02:50:07;;;;;;;10.60;6.65;;;;;;;;;;4972951;28;20041;-75
2022/04/22 02:52:33;;;;;;;14.45;6.93;;;;;;;;;;4981979;28;20120;-75
2022/04/22 02:54:59;;;;;;;11.85;6.68;;;;;;;;;;4995215;28;20053;-75
2022/04/22 02:57:25;;;;;;;11.27;7.45;;;;;;;;;;4994994;28;20042;-75
2022/04/22 02:59:51;;;;;;;13.50;7.20;;;;;;;;;;5011391;28;20490;-75
2022/04/22 03:02:17;;;;;;;11.80;6.82;;;;;;;;;;4994755;28;20053;-75
2022/04/22 03:04:43;;;;;;;10.18;6.88;;;;;;;;;;5011480;28;20532;-75
2022/04/22 03:07:09;;;;;;;13.48;7.65;;;;;;;;;;4994975;28;20042;-74
2022/04/22 03:09:36;;;;;;;10.20;6.53;;;;;;;;;;4994151;28;20444;-75
2022/04/22 03:12:02;;;;;;;13.02;7.45;;;;;;;;;;4994826;28;20052;-74
2022/04/22 03:14:29;;;;;;;12.15;7.00;;;;;;;;;;4978227;28;20049;-75
2022/04/22 03:16:55;;;;;;;8.60;6.18;;;;;;;;;;4984046;28;20054;-74
2022/04/22 03:19:22;;;;;;;11.30;6.50;;;;;;;;;;4993174;28;20050;-75
2022/04/22 03:21:48;;;;;;;15.38;6.78;;;;;;;;;;4975555;28;20069;-75
2022/04/22 03:24:14;;;;;;;9.15;6.90;;;;;;;;;;4989878;28;20053;-75
2022/04/22 03:26:40;;;;;;;10.23;6.22;;;;;;;;;;5010223;28;20045;-76
2022/04/22 03:29:06;;;;;;;11.13;6.60;;;;;;;;;;4998529;28;20069;-74
2022/04/22 03:31:32;;;;;;;11.27;6.40;;;;;;;;;;5011601;28;20042;-74
2022/04/22 03:33:59;;;;;;;10.95;6.45;;;;;;;;;;4993771;28;20115;-76
2022/04/22 03:36:25;;;;;;;13.20;6.43;;;;;;;;;;5011717;28;20042;-75
2022/04/22 03:38:51;;;;;;;11.85;5.93;;;;;;;;;;4993778;28;20057;-75
2022/04/22 03:41:17;;;;;;;12.43;6.78;;;;;;;;;;4994181;28;20565;-75
2022/04/22 03:43:43;;;;;;;9.27;5.80;;;;;;;;;;4981015;28;20505;-75
2022/04/22 03:46:09;;;;;;;12.15;6.45;;;;;;;;;;4986071;28;20103;-74
2022/04/22 03:48:35;;;;;;;12.68;7.13;;;;;;;;;;4994547;28;20136;-79
2022/04/22 03:51:01;;;;;;;12.38;5.82;;;;;;;;;;5011453;28;20056;-75
2022/04/22 03:53:27;;;;;;;9.18;6.57;;;;;;;;;;4994555;28;20117;-75
2022/04/22 03:55:54;;;;;;;11.40;6.53;;;;;;;;;;4977930;28;20053;-74
2022/04/22 03:58:20;;;;;;;11.20;6.18;;;;;;;;;;4948337;28;20054;-75
2022/04/22 04:00:52;;;;;;;12.32;6.25;;;;;;;;;;4992330;28;20054;-76
2022/04/22 04:03:22;;;;;;;9.00;6.63;;;;;;;;;;4983000;28;20530;-75
2022/04/22 04:05:52;;;;;;;11.82;7.25;;;;;;;;;;4991231;28;20100;-75
2022/04/22 04:08:19;;;;;;;14.57;6.63;;;;;;;;;;4994514;28;20088;-74
2022/04/22 04:16:14;;;;;;;10.32;6.53;;;;;;;;;;4993457;28;20108;-74
2022/04/22 04:18:41;;;;;;;13.98;6.97;;;;;;;;;;4992960;28;20054;-76
2022/04/22 04:23:53;;;;;;;10.43;6.28;;;;;;;;;;5001060;28;20125;-74
2022/04/22 04:26:21;;;;;;;10.20;6.55;;;;;;;;;;4992957;28;20378;-78
2022/04/22 04:28:48;;;;;;;9.45;6.53;;;;;;;;;;4977582;28;20050;-75
2022/04/22 04:31:15;;;;;;;9.40;6.32;;;;;;;;;;4978598;28;20140;-74
2022/04/22 04:33:41;;;;;;;10.02;5.97;;;;;;;;;;4989922;28;20058;-75
2022/04/22 04:36:11;;;;;;;13.75;6.70;;;;;;;;;;5014326;28;20045;-74
2022/04/22 04:38:37;;;;;;;12.40;6.85;;;;;;;;;;5014471;28;20045;-74
2022/04/22 04:41:03;;;;;;;13.02;6.25;;;;;;;;;;4979611;28;20046;-74
2022/04/22 04:43:31;;;;;;;8.63;6.07;;;;;;;;;;4984975;28;20045;-74
2022/04/22 04:45:57;;;;;;;9.02;6.50;;;;;;;;;;4987750;28;20057;-74
2022/04/22 04:48:23;;;;;;;11.48;6.43;;;;;;;;;;4988639;28;20046;-74
2022/04/22 04:50:52;;;;;;;8.88;5.82;;;;;;;;;;4995670;28;20121;-74
2022/04/22 04:53:23;;;;;;;8.88;6.28;;;;;;;;;;4980858;28;20038;-75
2022/04/22 04:55:50;;;;;;;9.75;5.97;;;;;;;;;;4996494;28;20107;-75
2022/04/22 04:58:16;;;;;;;9.63;5.93;;;;;;;;;;4997060;28;20088;-74
2022/04/22 05:00:45;;;;;;;9.80;6.60;;;;;;;;;;4979592;28;20061;-74
2022/04/22 05:03:11;;;;;;;11.80;6.15;;;;;;;;;;4987294;28;20494;-74
2022/04/22 05:05:37;;;;;;;9.35;5.70;;;;;;;;;;4991304;28;20434;-74
2022/04/22 05:08:05;;;;;;;9.98;6.53;;;;;;;;;;4996299;28;20053;-74
2022/04/22 05:10:31;;;;;;;9.63;5.45;;;;;;;;;;4976025;28;20612;-74
2022/04/22 05:12:59;;;;;;;6.75;5.85;;;;;;;;;;5013054;28;20049;-75
2022/04/22 05:15:25;;;;;;;7.97;5.43;;;;;;;;;;5017075;28;20053;-75
2022/04/22 05:17:52;;;;;;;8.23;5.13;;;;;;;;;;4996391;28;20124;-74
2022/04/22 05:20:20;;;;;;;9.30;5.63;;;;;;;;;;4994913;28;20401;-75
2022/04/22 05:22:46;;;;;;;9.00;5.50;;;;;;;;;;4995028;28;20049;-75
2022/04/22 05:25:14;;;;;;;14.13;6.00;;;;;;;;;;4995492;28;20053;-75
2022/04/22 05:27:40;;;;;;;8.65;4.63;;;;;;;;;;5012897;28;20068;-75
2022/04/22 05:32:51;;;;;;;6.68;4.90;;;;;;;;;;4991126;28;20058;-75
2022/04/22 05:35:18;;;;;;;6.78;4.28;;;;;;;;;;5011810;28;20050;-75
2022/04/22 05:37:46;;;;;;;9.68;4.80;;;;;;;;;;4995352;28;20456;-81
2022/04/22 05:40:13;;;;;;;8.93;5.13;;;;;;;;;;4974982;28;20057;-75
2022/04/22 05:42:39;;;;;;;9.75;5.30;;;;;;;;;;4984208;28;20439;-79
2022/04/22 05:45:09;;;;;;;7.20;3.97;;;;;;;;;;4993400;28;20050;-77
2022/04/22 05:47:35;;;;;;;6.25;3.92;;;;;;;;;;4977778;28;20092;-75
2022/04/22 05:50:02;;;;;;;5.93;3.42;;;;;;;;;;4982010;28;20404;-75
2022/04/22 05:52:28;;;;;;;6.18;3.83;;;;;;;;;;4990819;28;20037;-75
2022/04/22 05:54:58;;;;;;;6.97;3.95;;;;;;;;;;4986534;28;20585;-75
2022/04/22 05:57:25;;;;;;;5.88;3.60;;;;;;;;;;4972449;28;20432;-76
2022/04/22 05:59:51;;;;;;;8.10;3.67;;;;;;;;;;4993187;28;20096;-76
2022/04/22 06:02:18;;;;;;;8.13;4.20;;;;;;;;;;4975872;28;20100;-75
2022/04/22 06:04:44;;;;;;;6.22;3.33;;;;;;;;;;4982324;28;20401;-75
2022/04/22 06:07:10;;;;;;;7.15;3.70;;;;;;;;;;4994998;28;20057;-75
2022/04/22 06:12:21;;;;;;;7.72;3.10;;;;;;;;;;4978116;28;20061;-75
2022/04/22 06:14:47;;;;;;;4.25;2.92;;;;;;;;;;4978306;28;20077;-80
2022/04/22 06:17:13;;;;;;;4.93;3.05;;;;;;;;;;4981030;28;20057;-75
2022/04/22 06:19:39;;;;;;;5.72;3.33;;;;;;;;;;4979401;28;20057;-75
2022/04/22 06:22:05;;;;;;;5.53;3.15;;;;;;;;;;5012231;28;20370;-74
2022/04/22 06:24:31;;;;;;;4.97;2.78;;;;;;;;;;5012429;28;20066;-75
2022/04/22 06:26:57;;;;;;;;;;;;;;;;;;4995677;28;20480;-74
2022/04/22 06:29:23;;;;;;;;;;;;;;;;;;4995860;28;20008;-75
2022/04/22 06:31:49;;;;;;;;;;;;;;;;;;4995221;28;19971;-74
2022/04/22 06:34:15;;;;;;;;;;;;;;;;;;4979592;28;20003;-74
2022/04/22 06:36:41;;;;;;;;;;;;;;;;;;4967251;28;19921;-74
2022/04/22 06:39:07;;;;;;;;;;;;;;;;;;4995149;28;20428;-74
2022/04/22 06:47:04;;;;;;;;;;;;;;;;;;4995218;28;19928;-74
2022/04/22 06:49:30;;;;;;;;;;;;;;;;;;4995449;28;19991;-74
2022/04/22 06:51:56;;;;;;;;;;;;;;;;;;4995455;28;20376;-74
2022/04/22 06:54:22;;;;;;;;;;;;;;;;;;4984393;28;19929;-75
2022/04/22 06:56:49;;;;;;;;;;;;;;;;;;4992386;28;20059;-75
2022/04/22 06:59:19;;;;;;;;;;;;;;;;;;4979991;28;19928;-75
2022/04/22 07:01:45;;;;;;;;;;;;;;;;;;4991685;28;20393;-75
2022/04/22 07:04:11;;;;;;;;;;;;;;;;;;4975563;28;19926;-77
2022/04/22 07:06:37;;;;;;;;;;;;;;;;;;4986399;28;19921;-75
2022/04/22 07:09:04;;;;;;;;;;;;;;;;;;4994676;28;19980;-75
2022/04/22 07:11:30;;;;;;;;;;;;;;;;;;4988658;28;19928;-75
2022/04/22 07:13:56;;;;;;;;;;;;;;;;;;4984381;28;19922;-74
2022/04/22 07:16:22;;;;;;;;;;;;;;;;;;4994623;28;19933;-74
2022/04/22 07:18:48;;;;;;;;;;;;;;;;;;4994548;28;19921;-75
2022/04/22 07:21:14;;;;;;;;;;;;;;;;;;4995348;28;20016;-74
2022/04/22 07:23:40;;;;;;;;;;;;;;;;;;4986645;28;20385;-75
2022/04/22 07:26:06;;;;;;;;;;;;;;;;;;4994673;28;19925;-75
2022/04/22 07:28:32;;;;;;;;;;;;;;;;;;5012130;28;19926;-74
2022/04/22 07:30:58;;;;;;;;;;;;;;;;;;5011232;28;19921;-75
2022/04/22 07:33:24;;;;;;;;;;;;;;;;;;4982850;28;20389;-75
2022/04/22 07:35:51;;;;;;;;;;;;;;;;;;4994356;28;19995;-76
2022/04/22 07:38:18;;;;;;;;;;;;;;;;;;4994800;28;19921;-74
2022/04/22 07:40:48;;;;;;;;;;;;;;;;;;4976656;28;19937;-75
2022/04/22 07:48:43;;;;;;;;;;;;;;;;;;4995082;28;20063;-75
2022/04/22 07:51:09;;;;;;;;;;;;;;;;;;4997851;28;19972;-75
2022/04/22 07:53:35;;;;;;;;;;;;;;;;;;4992439;28;19922;-79
2022/04/22 07:56:01;;;;;;;;;;;;;;;;;;4967061;28;19922;-75
2022/04/22 07:58:27;;;;;;;;;;;;;;;;;;5002479;28;19922;-75
2022/04/22 08:00:53;;;;;;;;;;;;;;;;;;4977980;28;20000;-76
2022/04/22 08:03:19;;;;;;;;;;;;;;;;;;4994393;28;19929;-76
2022/04/22 08:05:45;;;;;;;;;;;;;;;;;;4978756;28;20276;-76
2022/04/22 08:08:11;;;;;;;;;;;;;;;;;;5010820;28;19925;-77
2022/04/22 08:10:38;;;;;;;;;;;;;;;;;;4998488;28;19979;-75
2022/04/22 08:13:07;;;;;;;;;;;;;;;;;;5014441;28;20312;-75
2022/04/22 08:15:33;;;;;;;;;;;;;;;;;;5014575;28;19968;-75
2022/04/22 08:17:59;;;;;;;;;;;;;;;;;;5014742;28;19948;-76
2022/04/22 08:20:25;;;;;;;;;;;;;;;;;;5015350;28;20357;-75
2022/04/22 08:22:51;;;;;;;;;;;;;;;;;;4998404;28;20393;-76
2022/04/22 08:25:17;;;;;;;;;;;;;;;;;;5014522;28;20380;-75
2022/04/22 08:27:45;;;;;;;;;;;;;;;;;;4997914;28;19921;-75
2022/04/22 08:30:11;;;;;;;;;;;;;;;;;;4997600;28;19921;-76
2022/04/22 08:32:37;;;;;;;;;;;;;;;;;;4998172;28;19921;-75
2022/04/22 08:35:03;;;;;;;;;;;;;;;;;;5014416;28;20432;-75
2022/04/22 08:37:29;;;;;;;;;;;;;;;;;;4984271;28;19925;-76
2022/04/22 08:39:57;;;;;;;;;;;;;;;;;;4984478;28;19922;-77
2022/04/22 08:42:26;;;;;;;;;;;;;;;;;;5004861;28;19921;-76
2022/04/22 08:44:52;;;;;;;;;;;;;;;;;;4968916;28;20276;-75
2022/04/22 08:50:03;;;;;;;;;;;;;;;;;;5006527;28;19921;-76
2022/04/22 08:52:31;;;;;;;;;;;;;;;;;;4981336;28;19922;-75
2022/04/22 08:54:57;;;;;;;;;;;;;;;;;;4997401;28;19921;-76
2022/04/22 08:57:23;;;;;;;;;;;;;;;;;;5013892;28;20395;-75
2022/04/22 08:59:49;;;;;;;;;;;;;;;;;;5001863;28;19922;-75
2022/04/22 09:02:15;;;;;;;;;;;;;;;;;;4977993;28;20070;-76
2022/04/22 09:04:41;;;;;;;5.05;2.70;;;;;;;;;;5013013;28;19925;-76
2022/04/22 09:07:12;;;;;;;5.63;2.13;;;;;;;;;;4980733;28;20044;-75
2022/04/22 09:09:39;;;;;;;4.10;2.15;;;;;;;;;;4997243;28;20050;-75
2022/04/22 09:12:15;;;;;;;7.50;2.90;;;;;;;;;;4996711;28;20054;-75
2022/04/22 09:14:45;;;;;;;6.47;2.42;;;;;;;;;;4980347;28;20049;-76
2022/04/22 09:17:38;;;;;;;11.27;2.30;;;;;;;;;;5000702;28;20066;-75
2022/04/22 09:20:04;;;;;;;4.45;2.45;;;;;;;;;;4992355;28;20387;-75
2022/04/22 09:22:34;;;;;;;6.97;2.13;;;;;;;;;;4994071;28;20560;-75
2022/04/22 09:25:00;;;;;;;4.25;2.25;;;;;;;;;;4982447;28;20053;-75
2022/04/22 09:27:36;;;;;;;6.88;2.95;;;;;;;;;;4993421;28;20046;-75
2022/04/22 09:30:10;;;;;;;3.92;2.35;;;;;;;;;;4978553;28;20042;-75
2022/04/22 09:32:39;;;;;;;4.88;2.33;;;;;;;;;;4996708;28;20420;-75
2022/04/22 09:35:11;;;;;;;4.85;2.42;;;;;;;;;;4980514;28;20048;-75
2022/04/22 09:43:42;;;;;;;6.80;2.83;;;;;;;;;;4984318;28;20050;-75
2022/04/22 09:46:19;;;;;;;3.95;2.78;;;;;;;;;;5003970;28;20057;-75
2022/04/22 09:48:45;;;;;;;7.85;3.00;;;;;;;;;;5013337;28;20045;-76
2022/04/22 09:51:28;;;;;;;7.20;2.50;;;;;;;;;;4995680;28;20049;-79
2022/04/22 09:53:59;;;;;;;4.72;2.65;;;;;;;;;;4994600;28;20161;-76
2022/04/22 09:56:26;;;;;;;7.93;2.65;;;;;;;;;;4995843;28;20054;-76
2022/04/22 09:58:52;;;;;;;5.70;2.72;;;;;;;;;;4996294;28;20042;-75
2022/04/22 10:01:18;;;;;;;3.10;2.30;;;;;;;;;;4997169;28;20057;-76
2022/04/22 10:03:44;;;;;;;9.90;3.00;;;;;;;;;;4993174;28;20046;-76
2022/04/22 10:06:10;;;;;;;5.78;2.75;;;;;;;;;;5012330;28;20038;-76
2022/04/22 10:08:36;;;;;;;4.72;2.58;;;;;;;;;;4979892;28;20049;-76
2022/04/22 10:11:04;;;;;;;4.53;2.30;;;;;;;;;;5002954;28;20046;-78
2022/04/22 10:13:33;;;;;;;7.80;3.05;;;;;;;;;;4982788;28;20045;-76
2022/04/22 10:16:00;;;;;;;6.32;2.53;;;;;;;;;;5002836;28;20069;-76
2022/04/22 10:18:27;;;;;;;4.05;2.60;;;;;;;;;;5003229;28;20093;-75
2022/04/22 10:20:54;;;;;;;5.38;2.63;;;;;;;;;;4995854;28;20401;-76
2022/04/22 10:23:21;;;;;;;8.75;3.13;;;;;;;;;;5004075;28;20064;-76
2022/04/22 10:25:48;;;;;;;6.43;2.72;;;;;;;;;;5002911;28;20058;-75
2022/04/22 10:28:15;;;;;;;4.40;2.65;;;;;;;;;;4994582;28;20093;-75
2022/04/22 10:30:42;;;;;;;4.00;2.70;;;;;;;;;;5012108;28;20056;-75
2022/04/22 10:33:12;;;;;;;5.05;3.05;;;;;;;;;;4996453;28;20084;-76
2022/04/22 10:35:39;;;;;;;6.75;3.13;;;;;;;;;;5011462;28;20046;-75
2022/04/22 10:38:05;;;;;;;6.50;2.80;;;;;;;;;;4975741;28;20105;-75
2022/04/22 10:40:31;;;;;;;6.43;2.92;;;;;;;;;;4994566;28;20148;-76
2022/04/22 10:43:00;;;;;;;5.95;2.53;;;;;;;;;;4995116;28;20152;-75
2022/04/22 10:48:18;;;;;;;4.68;2.80;;;;;;;;;;4999192;28;20054;-77
2022/04/22 10:50:53;;;;;;;5.95;3.00;;;;;;;;;;4963890;28;20049;-75
2022/04/22 10:53:24;;;;;;;5.03;2.92;;;;;;;;;;4993755;28;20092;-77
2022/04/22 10:55:50;;;;;;;4.35;3.08;;;;;;;;;;4995005;28;20056;-75
2022/04/22 10:58:16;;;;;;;9.20;2.95;;;;;;;;;;4978317;28;20073;-79
2022/04/22 11:00:46;;;;;;;4.40;3.20;;;;;;;;;;4994906;28;20050;-75
2022/04/22 11:03:22;;;;;;;5.93;3.30;;;;;;;;;;5000574;28;20042;-76
2022/04/22 11:05:55;;;;;;;7.15;3.30;;;;;;;;;;4996880;28;20049;-75
2022/04/22 11:08:28;;;;;;;4.82;3.00;;;;;;;;;;4994625;28;20060;-76
2022/04/22 11:10:54;;;;;;;4.25;3.20;;;;;;;;;;4981437;28;20053;-75
2022/04/22 11:13:33;;;;;;;4.22;3.00;;;;;;;;;;4994374;28;20054;-76
2022/04/22 11:16:18;;;;;;;5.50;2.90;;;;;;;;;;5002128;28;20070;-77
2022/04/22 11:18:45;;;;;;;6.32;3.15;;;;;;;;;;4985398;28;20054;-75
2022/04/22 11:21:36;;;;;;;4.38;3.30;;;;;;;;;;4993596;28;20555;-75
2022/04/22 11:24:09;;;;;;;9.05;3.35;;;;;;;;;;4967201;28;20445;-75
2022/04/22 11:26:35;;;;;;;8.60;3.00;;;;;;;;;;4976206;28;20129;-75
2022/04/22 11:29:03;;;;;;;5.63;3.35;;;;;;;;;;4992179;28;20049;-75
2022/04/22 11:31:29;;;;;;;4.50;2.78;;;;;;;;;;4985466;28;20050;-75
2022/04/22 11:34:05;;;;;;;5.63;3.20;;;;;;;;;;4980546;28;20050;-76
2022/04/22 11:36:42;;;;;;;4.80;3.05;;;;;;;;;;4988004;28;20099;-73
2022/04/22 11:39:13;;;;;;;7.13;3.35;;;;;;;;;;5008521;28;20052;-75
2022/04/22 11:41:50;;;;;;;5.95;3.75;;;;;;;;;;4990424;28;20063;-75
2022/04/22 11:44:21;;;;;;;6.07;3.35;;;;;;;;;;4995801;28;20109;-76
2022/04/22 11:46:47;;;;;;;7.63;3.40;;;;;;;;;;4993973;28;20053;-76
2022/04/22 11:49:13;;;;;;;6.88;3.72;;;;;;;;;;4992858;28;20054;-77
2022/04/22 11:51:41;;;;;;;4.22;3.13;;;;;;;;;;4963423;28;20049;-77
2022/04/22 11:54:07;;;;;;;11.13;8.30;;;;;;;;;;4984462;28;20049;-75
2022/04/22 11:56:35;;;;;;;5.95;3.30;;;;;;;;;;4974095;28;20050;-75
2022/04/22 11:59:02;;;;;;;5.53;3.00;;;;;;;;;;4989207;28;20050;-76
2022/04/22 12:08:00;;;;;;;7.18;3.53;;;;;;;;;;4995212;28;20104;-75
2022/04/22 12:09:50;;;;;;;6.28;3.50;;;;;;;;;;4994331;28;20050;-77
2022/04/22 12:12:17;;;;;;;8.82;3.88;;;;;;;;;;4977359;28;20042;-76
2022/04/22 12:14:43;;;;;;;4.78;3.38;;;;;;;;;;4978091;28;20060;-76
2022/04/22 12:17:09;;;;;;;9.07;3.45;;;;;;;;;;4994752;28;20046;-82
2022/04/22 12:19:35;;;;;;;10.40;3.95;;;;;;;;;;5013579;28;20548;-76
2022/04/22 12:22:01;;;;;;;6.65;3.58;;;;;;;;;;5012164;28;20058;-76
2022/04/22 12:24:27;;;;;;;4.10;3.70;;;;;;;;;;5009474;28;20042;-77
2022/04/22 12:26:54;;;;;;;6.22;3.95;;;;;;;;;;5011667;28;20137;-77
2022/04/22 12:29:24;;;;;;;6.85;3.25;;;;;;;;;;5008691;28;20052;-77
2022/04/22 12:31:51;;;;;;;7.38;3.53;;;;;;;;;;5014752;28;20116;-76
2022/04/22 12:34:28;;;;;;;7.95;3.60;;;;;;;;;;4994560;28;20458;-76
2022/04/22 12:36:59;;;;;;;7.72;3.65;;;;;;;;;;4993285;28;20077;-75
2022/04/22 12:39:34;;;;;;;10.20;4.20;;;;;;;;;;4996456;28;20046;-75
2022/04/22 12:42:00;;;;;;;6.57;3.50;;;;;;;;;;4996450;28;20049;-76
2022/04/22 12:44:26;;;;;;;5.28;3.75;;;;;;;;;;4980823;28;20046;-75
2022/04/22 12:52:32;;;;;;;7.10;4.03;;;;;;;;;;5013488;28;20072;-73
2022/04/22 12:55:08;;;;;;;7.43;3.92;;;;;;;;;;5013471;28;20054;-75
2022/04/22 12:57:39;;;;;;;8.07;4.90;;;;;;;;;;4996901;28;20050;-75
2022/04/22 13:00:14;;;;;;;6.65;4.05;;;;;;;;;;5014238;28;20050;-75
2022/04/22 13:02:40;;;;;;;9.52;4.50;;;;;;;;;;4981186;28;20042;-77
2022/04/22 13:05:06;;;;;;;10.52;4.20;;;;;;;;;;4997048;28;20123;-75
2022/04/22 13:07:40;;;;;;;9.23;4.60;;;;;;;;;;4987601;28;20087;-75
2022/04/22 13:10:07;;;;;;;6.90;4.40;;;;;;;;;;5010812;28;20054;-75
2022/04/22 13:12:38;;;;;;;8.43;3.90;;;;;;;;;;4970625;28;20054;-76
2022/04/22 13:15:05;;;;;;;7.32;4.53;;;;;;;;;;4993171;28;20053;-75
2022/04/22 13:17:31;;;;;;;8.65;4.13;;;;;;;;;;4970603;28;20062;-75
2022/04/22 13:19:57;;;;;;;7.72;5.10;;;;;;;;;;5003942;28;20050;-75
2022/04/22 13:22:23;;;;;;;5.75;4.00;;;;;;;;;;5013425;28;20082;-75
2022/04/22 13:24:49;;;;;;;7.85;4.90;;;;;;;;;;4988387;28;20039;-75
2022/04/22 13:27:15;;;;;;;6.68;4.13;;;;;;;;;;4977411;28;20093;-78
2022/04/22 13:29:42;;;;;;;10.18;4.80;;;;;;;;;;4994311;28;20045;-75
2022/04/22 13:32:08;;;;;;;7.47;3.90;;;;;;;;;;4996640;28;20042;-75
2022/04/22 13:34:34;;;;;;;9.55;4.93;;;;;;;;;;4996031;28;20484;-75
2022/04/22 13:37:01;;;;;;;6.20;4.38;;;;;;;;;;5006929;28;20056;-75
2022/04/22 13:39:27;;;;;;;9.00;4.72;;;;;;;;;;5004409;28;20042;-75
2022/04/22 13:41:53;;;;;;;6.65;4.80;;;;;;;;;;5013432;28;20042;-76
2022/04/22 13:52:21;;;;;;;10.00;4.53;;;;;;;;;;4978624;28;20402;-77
2022/04/22 13:52:34;;;;;;;7.75;4.70;;;;;;;;;;4990070;28;20087;-75
2022/04/22 13:55:02;;;;;;;8.20;4.60;;;;;;;;;;4964959;28;20089;-76
2022/04/22 13:57:28;;;;;;;7.15;5.30;;;;;;;;;;4976733;28;20050;-75
2022/04/22 13:59:54;;;;;;;5.75;4.30;;;;;;;;;;4976027;28;20493;-75
2022/04/22 14:02:20;;;;;;;6.45;4.90;;;;;;;;;;4982151;28;20078;-76
2022/04/22 14:04:47;;;;;;;7.05;4.70;;;;;;;;;;5003183;28;20039;-77
2022/04/22 14:07:14;;;;;;;7.95;4.65;;;;;;;;;;4984653;28;20379;-75
2022/04/22 14:09:40;;;;;;;9.50;4.75;;;;;;;;;;4983833;28;20049;-75
2022/04/22 14:12:07;;;;;;;9.75;5.10;;;;;;;;;;4996047;28;20065;-76
2022/04/22 14:14:35;;;;;;;8.20;4.60;;;;;;;;;;4995216;28;20045;-75
2022/04/22 14:17:01;;;;;;;8.63;4.85;;;;;;;;;;5012232;28;20180;-76
2022/04/22 14:19:27;;;;;;;7.55;4.43;;;;;;;;;;5001518;28;20104;-76
2022/04/22 14:21:54;;;;;;;8.15;4.63;;;;;;;;;;4982702;28;20087;-76
2022/04/22 14:24:20;;;;;;;5.57;4.63;;;;;;;;;;4968069;28;20046;-76
2022/04/22 14:26:47;;;;;;;6.22;4.40;;;;;;;;;;4995544;28;20112;-76
2022/04/22 14:29:13;;;;;;;8.48;4.82;;;;;;;;;;4995518;28;20082;-75
2022/04/22 14:31:39;;;;;;;8.73;4.95;;;;;;;;;;5009026;28;20050;-75
2022/04/22 14:34:06;;;;;;;6.05;4.68;;;;;;;;;;4976817;28;20057;-75
2022/04/22 14:36:32;;;;;;;5.97;4.65;;;;;;;;;;4976306;28;20058;-75
2022/04/22 14:38:58;;;;;;;7.75;4.30;;;;;;;;;;4993729;28;20054;-75
2022/04/22 14:41:24;;;;;;;7.63;4.72;;;;;;;;;;4986468;28;20053;-76
2022/04/22 14:43:51;;;;;;;7.05;4.68;;;;;;;;;;4995107;28;20057;-77
2022/04/22 14:46:17;;;;;;;7.28;4.80;;;;;;;;;;4965476;28;20078;-76
2022/04/22 14:48:43;;;;;;;8.80;4.95;;;;;;;;;;4986151;28;20096;-76
2022/04/22 14:51:09;;;;;;;8.45;4.95;;;;;;;;;;4979011;28;20085;-76
2022/04/22 14:53:36;;;;;;;11.02;4.85;;;;;;;;;;4994817;28;20123;-76
2022/04/22 14:56:02;;;;;;;9.88;5.28;;;;;;;;;;4994880;28;20124;-76
2022/04/22 14:58:28;;;;;;;11.93;5.30;;;;;;;;;;4994618;28;20099;-76
2022/04/22 15:00:54;;;;;;;14.30;5.13;;;;;;;;;;5011638;28;20077;-76
2022/04/22 15:03:20;;;;;;;8.05;4.72;;;;;;;;;;4994722;28;20042;-78
2022/04/22 15:05:47;;;;;;;7.90;4.75;;;;;;;;;;5011923;28;20544;-76
2022/04/22 15:08:13;;;;;;;8.40;4.88;;;;;;;;;;4984712;28;20065;-76
2022/04/22 15:10:40;;;;;;;7.20;4.50;;;;;;;;;;4983339;28;20113;-76
2022/04/22 15:13:06;;;;;;;7.25;4.38;;;;;;;;;;5011691;28;20105;-76
2022/04/22 15:15:33;;;;;;;6.15;4.72;;;;;;;;;;5010302;28;20432;-76
2022/04/22 15:26:13;;;;;;;6.57;3.80;;;;;;;;;;4991394;28;20056;-76
2022/04/22 15:28:40;;;;;;;8.88;4.72;;;;;;;;;;4975309;28;20081;-75
2022/04/22 15:31:13;;;;;;;13.30;4.88;;;;;;;;;;4985207;28;20059;-74
2022/04/22 15:33:44;;;;;;;8.27;4.63;;;;;;;;;;4971555;28;20100;-76
2022/04/22 15:36:11;;;;;;;10.90;4.68;;;;;;;;;;4994220;28;20056;-77
2022/04/22 15:38:42;;;;;;;8.32;5.25;;;;;;;;;;4990644;28;20045;-75
2022/04/22 15:41:10;;;;;;;6.20;4.05;;;;;;;;;;5010439;28;20047;-75
2022/04/22 15:43:40;;;;;;;5.68;4.20;;;;;;;;;;4977831;28;20038;-75
2022/04/22 15:46:06;;;;;;;5.20;3.50;;;;;;;;;;5008712;28;20100;-75
2022/04/22 15:48:34;;;;;;;5.03;4.28;;;;;;;;;;5010077;28;20073;-76
2022/04/22 15:51:00;;;;;;;7.15;4.45;;;;;;;;;;5008313;28;20054;-75
2022/04/22 15:53:26;;;;;;;8.45;3.90;;;;;;;;;;5006009;28;20050;-75
2022/04/22 15:55:52;;;;;;;7.25;3.60;;;;;;;;;;5008763;28;20046;-75
2022/04/22 15:58:19;;;;;;;7.20;4.15;;;;;;;;;;4996196;28;20058;-76
2022/04/22 16:00:46;;;;;;;9.02;3.70;;;;;;;;;;4992452;28;20417;-76
2022/04/22 16:03:12;;;;;;;9.23;3.75;;;;;;;;;;5000731;28;20042;-76
2022/04/22 16:05:41;;;;;;;7.50;3.47;;;;;;;;;;4989200;28;20041;-75
2022/04/22 16:08:07;;;;;;;13.15;3.92;;;;;;;;;;5004063;28;20050;-76
2022/04/22 16:10:33;;;;;;;6.05;3.20;;;;;;;;;;4987081;28;20161;-79